createdAt,value
2019-03-15T00:00:37.588Z,98777.64
2019-03-15T00:03:06.814Z,98783.19
2019-03-15T00:05:36.171Z,98785.25
2019-03-15T00:08:06.417Z,98811.89
2019-03-15T00:10:35.708Z,98781.89
2019-03-15T00:13:05.007Z,98764.45
2019-03-15T00:15:34.241Z,98808.56
2019-03-15T00:18:03.812Z,98814.67
2019-03-15T00:20:33.132Z,98806.32
2019-03-15T00:23:02.378Z,98805.89
2019-03-15T00:25:31.697Z,98795.02
2019-03-15T00:28:00.924Z,98809.70
2019-03-15T00:30:30.249Z,98818.48
2019-03-15T00:32:59.551Z,98827.11
2019-03-15T00:35:28.899Z,98824.44
2019-03-15T00:37:58.144Z,98836.07
2019-03-15T00:40:27.387Z,98833.36
2019-03-15T00:42:56.878Z,98819.33
2019-03-15T00:45:26.101Z,98835.09
2019-03-15T00:47:55.395Z,98827.02
2019-03-15T00:50:24.688Z,98829.59
2019-03-15T00:52:53.963Z,98837.28
2019-03-15T00:55:23.624Z,98835.97
2019-03-15T00:57:53.737Z,98842.64
2019-03-15T01:00:23.069Z,98844.38
2019-03-15T01:02:52.370Z,98837.84
2019-03-15T01:05:21.625Z,98847.98
2019-03-15T01:07:51.307Z,98860.84
2019-03-15T01:10:20.976Z,98867.75
2019-03-15T01:12:51.077Z,98862.25
2019-03-15T01:15:20.563Z,98864.73
2019-03-15T01:17:49.933Z,98872.48
2019-03-15T01:20:19.591Z,98873.37
2019-03-15T01:22:48.964Z,98870.94
2019-03-15T01:25:18.695Z,98875.39
2019-03-15T01:27:47.923Z,98886.52
2019-03-15T01:30:17.306Z,98862.36
2019-03-15T01:32:46.595Z,98879.76
2019-03-15T01:35:15.951Z,98879.95
2019-03-15T01:37:45.317Z,98877.74
2019-03-15T01:40:14.985Z,98877.27
2019-03-15T01:42:44.264Z,98873.98
2019-03-15T01:45:13.673Z,98875.39
2019-03-15T01:47:43.578Z,98868.37
2019-03-15T01:50:12.902Z,98877.31
2019-03-15T01:52:42.326Z,98875.64
2019-03-15T01:55:11.705Z,98873.09
2019-03-15T01:57:41.077Z,98890.17
2019-03-15T02:00:11.456Z,98901.45
2019-03-15T02:02:40.711Z,98859.39
2019-03-15T02:05:10.553Z,98906.52
2019-03-15T02:07:39.964Z,98901.40
2019-03-15T02:10:09.319Z,98906.53
2019-03-15T02:12:39.128Z,98902.16
2019-03-15T02:15:09.296Z,98904.27
2019-03-15T02:17:38.611Z,98904.35
2019-03-15T02:20:08.562Z,98893.56
2019-03-15T02:22:40.406Z,98891.62
2019-03-15T02:25:10.134Z,98893.19
2019-03-15T02:27:39.919Z,98889.42
2019-03-15T02:30:10.371Z,98883.60
2019-03-15T02:32:40.232Z,98898.20
2019-03-15T02:35:09.894Z,98889.61
2019-03-15T02:37:39.444Z,98896.05
2019-03-15T02:40:08.797Z,98893.98
2019-03-15T02:42:38.428Z,98902.01
2019-03-15T02:45:08.432Z,98910.28
2019-03-15T02:47:38.062Z,98911.22
2019-03-15T02:50:07.515Z,98909.80
2019-03-15T02:52:36.973Z,98918.14
2019-03-15T02:55:06.904Z,98919.77
2019-03-15T02:57:36.071Z,98918.30
2019-03-15T03:00:05.804Z,98920.69
2019-03-15T03:02:35.472Z,98910.59
2019-03-15T03:05:04.943Z,98911.70
2019-03-15T03:07:34.334Z,98927.70
2019-03-15T03:10:04.105Z,98928.74
2019-03-15T03:12:33.399Z,98931.38
2019-03-15T03:15:02.728Z,98937.46
2019-03-15T03:17:32.147Z,98952.02
2019-03-15T03:20:01.462Z,98960.63
2019-03-15T03:22:30.933Z,98961.41
2019-03-15T03:25:00.379Z,98973.50
2019-03-15T03:27:29.670Z,98968.78
2019-03-15T03:29:58.936Z,98964.23
2019-03-15T03:32:28.293Z,98963.09
2019-03-15T03:34:57.743Z,98960.63
2019-03-15T03:37:27.019Z,98963.94
2019-03-15T03:39:56.316Z,98975.75
2019-03-15T03:42:25.660Z,98979.39
2019-03-15T03:44:54.969Z,98980.50
2019-03-15T03:47:24.303Z,98975.84
2019-03-15T03:49:53.770Z,98976.32
2019-03-15T03:52:23.015Z,98987.83
2019-03-15T03:54:52.327Z,98984.49
2019-03-15T03:57:21.690Z,98982.13
2019-03-15T03:59:51.314Z,98988.17
2019-03-15T04:02:20.703Z,98986.98
2019-03-15T04:04:50.137Z,98991.08
2019-03-15T04:07:19.510Z,98990.51
2019-03-15T04:09:48.818Z,98991.74
2019-03-15T04:12:18.663Z,99000.94
2019-03-15T04:14:48.300Z,99002.11
2019-03-15T04:17:17.657Z,99013.09
2019-03-15T04:19:46.969Z,98995.23
2019-03-15T04:22:16.177Z,99011.52
2019-03-15T04:24:45.933Z,99008.39
2019-03-15T04:27:15.174Z,99012.67
2019-03-15T04:29:44.568Z,99021.59
2019-03-15T04:32:13.874Z,99012.46
2019-03-15T04:34:43.236Z,99025.48
2019-03-15T04:37:12.607Z,99032.22
2019-03-15T04:39:42.367Z,99022.81
2019-03-15T04:42:11.685Z,99028.39
2019-03-15T04:44:41.350Z,99017.70
2019-03-15T04:47:10.684Z,99040.61
2019-03-15T04:49:40.023Z,99032.81
2019-03-15T04:52:09.370Z,99039.38
2019-03-15T04:54:39.262Z,99047.02
2019-03-15T04:57:08.601Z,99039.62
2019-03-15T04:59:38.211Z,99050.59
2019-03-15T05:02:09.349Z,99041.77
2019-03-15T05:04:38.575Z,99043.09
2019-03-15T05:07:08.053Z,99050.61
2019-03-15T05:09:37.538Z,99056.81
2019-03-15T05:12:07.208Z,99060.86
2019-03-15T05:14:37.872Z,99060.59
2019-03-15T05:17:07.667Z,99061.63
2019-03-15T05:19:37.111Z,99066.50
2019-03-15T05:22:06.477Z,99073.02
2019-03-15T05:24:35.848Z,99068.38
2019-03-15T05:27:05.514Z,99057.98
2019-03-15T05:29:34.887Z,99050.09
2019-03-15T05:32:04.212Z,99060.08
2019-03-15T05:34:33.451Z,99056.14
2019-03-15T05:37:03.309Z,99056.82
2019-03-15T05:39:32.608Z,99063.70
2019-03-15T05:42:02.001Z,99050.84
2019-03-15T05:44:31.434Z,99058.46
2019-03-15T05:47:01.662Z,99059.70
2019-03-15T05:49:31.430Z,99056.11
2019-03-15T05:52:00.788Z,99058.42
2019-03-15T05:54:30.189Z,99064.52
2019-03-15T05:56:59.599Z,99067.75
2019-03-15T05:59:29.533Z,99072.98
2019-03-15T06:01:58.913Z,99074.60
2019-03-15T06:04:28.884Z,99081.06
2019-03-15T06:06:58.510Z,99091.66
2019-03-15T06:09:27.840Z,99090.48
2019-03-15T06:11:57.378Z,99091.55
2019-03-15T06:14:27.752Z,99093.45
2019-03-15T06:16:57.110Z,99097.92
2019-03-15T06:19:26.330Z,99087.73
2019-03-15T06:21:57.546Z,99096.14
2019-03-15T06:24:27.180Z,99082.33
2019-03-15T06:26:56.484Z,99086.81
2019-03-15T06:29:26.003Z,99093.25
2019-03-15T06:31:55.264Z,99091.38
2019-03-15T06:34:24.917Z,99095.63
2019-03-15T06:36:54.228Z,99087.63
2019-03-15T06:39:23.526Z,99088.37
2019-03-15T06:41:53.710Z,99099.60
2019-03-15T06:44:23.127Z,99085.75
2019-03-15T06:46:52.470Z,99072.32
2019-03-15T06:49:21.838Z,99081.50
2019-03-15T06:51:51.059Z,99079.95
2019-03-15T06:54:20.479Z,99088.36
2019-03-15T06:56:49.787Z,99094.08
2019-03-15T06:59:19.344Z,99078.86
2019-03-15T07:01:48.756Z,99070.16
2019-03-15T07:04:18.044Z,99086.55
2019-03-15T07:06:47.623Z,99081.61
2019-03-15T07:09:17.010Z,99088.92
2019-03-15T07:11:46.560Z,99072.61
2019-03-15T07:14:16.068Z,99086.66
2019-03-15T07:16:45.445Z,99076.20
2019-03-15T07:19:25.633Z,99078.11
2019-03-15T07:21:47.037Z,99083.64
2019-03-15T07:24:25.079Z,99088.31
2019-03-15T07:26:50.838Z,99092.70
2019-03-15T07:29:20.361Z,99089.45
2019-03-15T07:31:49.761Z,99084.98
2019-03-15T07:34:19.314Z,99082.03
2019-03-15T07:36:48.701Z,99079.45
2019-03-15T07:39:18.683Z,99087.01
2019-03-15T07:41:48.492Z,99084.90
2019-03-15T07:44:17.855Z,99081.38
2019-03-15T07:46:47.302Z,99086.47
2019-03-15T07:49:18.059Z,99088.48
2019-03-15T07:51:50.221Z,99084.42
2019-03-15T07:54:19.444Z,99086.83
2019-03-15T07:56:49.546Z,99094.81
2019-03-15T07:59:18.796Z,99089.11
2019-03-15T08:01:48.212Z,99084.05
2019-03-15T08:04:20.714Z,99098.42
2019-03-15T08:06:50.327Z,99093.55
2019-03-15T08:09:19.754Z,99084.95
2019-03-15T08:11:49.101Z,99085.64
2019-03-15T08:14:19.048Z,99079.37
2019-03-15T08:16:49.011Z,99075.66
2019-03-15T08:19:18.313Z,99073.97
2019-03-15T08:21:49.322Z,99081.70
2019-03-15T08:24:19.161Z,99085.27
2019-03-15T08:26:49.118Z,99085.28
2019-03-15T08:29:18.665Z,99077.31
2019-03-15T08:31:47.942Z,99085.06
2019-03-15T08:34:17.295Z,99072.25
2019-03-15T08:36:46.555Z,99091.16
2019-03-15T08:39:16.139Z,99093.58
2019-03-15T08:41:45.399Z,99086.53
2019-03-15T08:44:17.198Z,99089.45
2019-03-15T08:46:51.352Z,99094.47
2019-03-15T08:49:20.762Z,99091.17
2019-03-15T08:52:03.121Z,99080.48
2019-03-15T08:54:23.241Z,99091.72
2019-03-15T08:56:52.944Z,99084.57
2019-03-15T08:59:22.241Z,99073.34
2019-03-15T09:01:52.976Z,99075.27
2019-03-15T09:04:27.786Z,99079.84
2019-03-15T09:07:00.497Z,99086.92
2019-03-15T09:09:29.851Z,99087.46
2019-03-15T09:11:59.214Z,99084.67
2019-03-15T09:14:28.468Z,99093.19
2019-03-15T09:16:58.083Z,99077.20
2019-03-15T09:19:27.591Z,99090.80
2019-03-15T09:22:00.324Z,99089.30
2019-03-15T09:24:27.894Z,99080.52
2019-03-15T09:26:57.217Z,99054.89
2019-03-15T09:29:28.436Z,99065.98
2019-03-15T09:32:05.481Z,99080.09
2019-03-15T09:34:28.991Z,99077.30
2019-03-15T09:36:58.284Z,99073.61
2019-03-15T09:39:27.554Z,99063.08
2019-03-15T09:41:56.833Z,99057.30
2019-03-15T09:44:28.543Z,99069.79
2019-03-15T09:46:57.821Z,99061.74
2019-03-15T09:49:27.159Z,99071.98
2019-03-15T09:51:56.734Z,99061.03
2019-03-15T09:54:26.481Z,99041.16
2019-03-15T09:56:55.724Z,99045.20
2019-03-15T09:59:25.018Z,99057.58
2019-03-15T10:01:56.754Z,99055.58
2019-03-15T10:04:26.321Z,99048.13
2019-03-15T10:06:57.803Z,99046.70
2019-03-15T10:09:30.423Z,99016.59
2019-03-15T10:11:59.920Z,99028.00
2019-03-15T10:14:29.554Z,99019.80
2019-03-15T10:16:58.986Z,98983.66
2019-03-15T10:19:29.752Z,99026.11
2019-03-15T10:22:01.971Z,99029.59
2019-03-15T10:24:31.610Z,99013.90
2019-03-15T10:27:00.899Z,99043.80
2019-03-15T10:29:30.289Z,99040.11
2019-03-15T10:32:01.099Z,99046.17
2019-03-15T10:34:35.683Z,99034.75
2019-03-15T10:37:06.193Z,99052.06
2019-03-15T10:39:35.439Z,98994.49
2019-03-15T10:42:04.805Z,99036.91
2019-03-15T10:44:35.425Z,99026.88
2019-03-15T10:47:07.263Z,99022.39
2019-03-15T10:49:36.601Z,99023.61
2019-03-15T10:52:05.846Z,99024.08
2019-03-15T10:54:35.137Z,99011.27
2019-03-15T10:57:04.426Z,98982.84
2019-03-15T10:59:33.905Z,99013.33
2019-03-15T11:02:03.363Z,99014.55
2019-03-15T11:04:32.605Z,98999.19
2019-03-15T11:07:01.896Z,98999.24
2019-03-15T11:09:34.740Z,98991.52
2019-03-15T11:12:04.047Z,98984.17
2019-03-15T11:14:33.639Z,98981.27
2019-03-15T11:17:02.939Z,98992.09
2019-03-15T11:19:32.202Z,98988.02
2019-03-15T11:22:11.654Z,98986.48
2019-03-15T11:24:43.563Z,98985.17
2019-03-15T11:27:11.962Z,98977.23
2019-03-15T11:29:41.220Z,98980.25
2019-03-15T11:32:17.168Z,98975.88
2019-03-15T11:34:47.698Z,98969.53
2019-03-15T11:37:17.308Z,98968.06
2019-03-15T11:39:46.630Z,98962.63
2019-03-15T11:42:15.923Z,98961.83
2019-03-15T11:44:45.167Z,98943.91
2019-03-15T11:47:14.514Z,98949.67
2019-03-15T11:49:43.790Z,98961.73
2019-03-15T11:52:13.020Z,98941.84
2019-03-15T11:54:42.421Z,98928.14
2019-03-15T11:57:11.675Z,98930.84
2019-03-15T11:59:40.959Z,98927.61
2019-03-15T12:02:10.823Z,98933.41
2019-03-15T12:04:40.416Z,98947.94
2019-03-15T12:07:10.520Z,98939.75
2019-03-15T12:09:41.122Z,98933.69
2019-03-15T12:12:10.529Z,98926.13
2019-03-15T12:14:41.272Z,98914.59
2019-03-15T12:17:11.427Z,98901.62
2019-03-15T12:19:40.681Z,98891.41
2019-03-15T12:22:09.966Z,98896.41
2019-03-15T12:24:39.202Z,98883.00
2019-03-15T12:27:08.597Z,98891.20
2019-03-15T12:29:37.834Z,98872.98
2019-03-15T12:32:09.399Z,98867.13
2019-03-15T12:34:38.703Z,98874.09
2019-03-15T12:37:07.988Z,98871.42
2019-03-15T12:39:37.257Z,98866.67
2019-03-15T12:42:06.599Z,98855.89
2019-03-15T12:44:35.963Z,98851.80
2019-03-15T12:47:06.310Z,98834.73
2019-03-15T12:49:35.683Z,98829.25
2019-03-15T12:52:05.555Z,98821.38
2019-03-15T12:54:34.821Z,98835.41
2019-03-15T12:57:04.448Z,98824.81
2019-03-15T12:59:33.823Z,98815.12
2019-03-15T13:02:03.815Z,98809.33
2019-03-15T13:04:33.155Z,98807.16
2019-03-15T13:07:02.414Z,98793.80
2019-03-15T13:09:31.738Z,98796.23
2019-03-15T13:12:01.076Z,98798.30
2019-03-15T13:14:30.347Z,98769.75
2019-03-15T13:16:59.666Z,98769.62
2019-03-15T13:19:29.397Z,98776.29
2019-03-15T13:22:00.001Z,98762.83
2019-03-15T13:24:29.313Z,98763.94
2019-03-15T13:27:07.697Z,98750.98
2019-03-15T13:29:34.948Z,98750.94
2019-03-15T13:32:07.895Z,98748.30
2019-03-15T13:34:37.296Z,98747.94
2019-03-15T13:37:06.608Z,98743.87
2019-03-15T13:39:37.542Z,98742.66
2019-03-15T13:42:07.222Z,98745.13
2019-03-15T13:44:36.709Z,98750.23
2019-03-15T13:47:06.103Z,98733.68
2019-03-15T13:49:35.479Z,98738.52
2019-03-15T13:52:07.844Z,98741.94
2019-03-15T13:54:38.081Z,98740.30
2019-03-15T13:57:20.292Z,98724.38
2019-03-15T13:59:38.505Z,98729.78
2019-03-15T14:02:08.160Z,98729.98
2019-03-15T14:04:38.008Z,98732.19
2019-03-15T14:07:08.251Z,98724.36
2019-03-15T14:09:37.613Z,98727.87
2019-03-15T14:12:07.054Z,98727.36
2019-03-15T14:14:36.426Z,98709.55
2019-03-15T14:17:05.765Z,98708.27
2019-03-15T14:19:35.050Z,98713.09
2019-03-15T14:22:06.172Z,98698.40
2019-03-15T14:24:35.652Z,98708.34
2019-03-15T14:27:05.331Z,98696.27
2019-03-15T14:29:34.922Z,98713.19
2019-03-15T14:32:06.680Z,98706.42
2019-03-15T14:34:35.364Z,98710.89
2019-03-15T14:37:04.793Z,98712.70
2019-03-15T14:39:34.128Z,98721.66
2019-03-15T14:42:03.913Z,98717.66
2019-03-15T14:44:34.040Z,98704.59
2019-03-15T14:47:03.758Z,98701.18
2019-03-15T14:49:33.139Z,98703.55
2019-03-15T14:52:02.498Z,98694.91
2019-03-15T14:54:31.850Z,98680.73
2019-03-15T14:57:01.188Z,98686.69
2019-03-15T14:59:31.019Z,98688.03
2019-03-15T15:02:01.491Z,98690.02
2019-03-15T15:04:31.184Z,98684.75
2019-03-15T15:07:00.607Z,98680.13
2019-03-15T15:09:30.271Z,98683.42
2019-03-15T15:11:59.601Z,98679.80
2019-03-15T15:14:29.274Z,98663.27
2019-03-15T15:16:58.579Z,98657.98
2019-03-15T15:19:27.850Z,98645.73
2019-03-15T15:21:57.155Z,98646.88
2019-03-15T15:24:27.238Z,98633.81
2019-03-15T15:26:56.712Z,98652.00
2019-03-15T15:29:26.037Z,98634.31
2019-03-15T15:31:55.333Z,98642.73
2019-03-15T15:34:24.621Z,98634.80
2019-03-15T15:36:53.956Z,98628.84
2019-03-15T15:39:24.070Z,98631.16
2019-03-15T15:41:53.611Z,98621.05
2019-03-15T15:44:23.001Z,98613.63
2019-03-15T15:46:52.302Z,98615.27
2019-03-15T15:49:21.700Z,98602.38
2019-03-15T15:51:50.984Z,98611.13
2019-03-15T15:54:20.311Z,98599.06
2019-03-15T15:56:50.974Z,98592.80
2019-03-15T15:59:21.342Z,98581.86
2019-03-15T16:01:50.660Z,98581.34
2019-03-15T16:04:20.290Z,98562.00
2019-03-15T16:06:49.967Z,98576.22
2019-03-15T16:09:20.695Z,98573.53
2019-03-15T16:11:49.976Z,98564.66
2019-03-15T16:14:19.253Z,98568.27
2019-03-15T16:16:49.069Z,98551.73
2019-03-15T16:19:18.947Z,98547.58
2019-03-15T16:21:48.246Z,98551.50
2019-03-15T16:24:17.667Z,98546.64
2019-03-15T16:26:46.924Z,98547.77
2019-03-15T16:29:16.194Z,98553.17
2019-03-15T16:31:45.463Z,98542.70
2019-03-15T16:34:14.712Z,98536.19
2019-03-15T16:36:44.098Z,98531.92
2019-03-15T16:39:13.392Z,98526.25
2019-03-15T16:41:42.754Z,98514.97
2019-03-15T16:44:12.022Z,98514.25
2019-03-15T16:46:41.357Z,98513.94
2019-03-15T16:49:10.790Z,98493.05
2019-03-15T16:51:40.080Z,98506.94
2019-03-15T16:54:09.362Z,98488.33
2019-03-15T16:56:38.898Z,98483.41
2019-03-15T16:59:09.696Z,98493.02
2019-03-15T17:01:39.226Z,98497.20
2019-03-15T17:04:08.466Z,98495.27
2019-03-15T17:06:37.840Z,98505.24
2019-03-15T17:09:08.063Z,98493.00
2019-03-15T17:11:37.380Z,98520.75
2019-03-15T17:14:06.704Z,98513.47
2019-03-15T17:16:36.052Z,98523.22
2019-03-15T17:19:05.295Z,98545.02
2019-03-15T17:21:34.616Z,98504.95
2019-03-15T17:24:03.941Z,98532.23
2019-03-15T17:26:33.550Z,98542.38
2019-03-15T17:29:02.845Z,98561.31
2019-03-15T17:31:33.560Z,98562.20
2019-03-15T17:34:02.953Z,98562.11
2019-03-15T17:36:32.239Z,98549.59
2019-03-15T17:39:01.910Z,98582.40
2019-03-15T17:41:31.253Z,98625.69
2019-03-15T17:44:00.836Z,98617.95
2019-03-15T17:46:30.150Z,98627.38
2019-03-15T17:48:59.669Z,98616.44
2019-03-15T17:51:31.822Z,98625.35
2019-03-15T17:54:01.230Z,98643.38
2019-03-15T17:56:30.484Z,98659.84
2019-03-15T17:59:11.889Z,98663.42
2019-03-15T18:01:31.016Z,98660.86
2019-03-15T18:04:00.419Z,98674.87
2019-03-15T18:06:32.650Z,98654.91
2019-03-15T18:09:02.884Z,98675.31
2019-03-15T18:11:32.181Z,98684.37
2019-03-15T18:14:01.520Z,98695.08
2019-03-15T18:16:30.822Z,98692.98
2019-03-15T18:19:00.179Z,98690.98
2019-03-15T18:21:31.987Z,98690.07
2019-03-15T18:24:01.469Z,98677.24
2019-03-15T18:26:30.903Z,98689.79
2019-03-15T18:29:00.155Z,98675.94
2019-03-15T18:31:29.750Z,98670.02
2019-03-15T18:33:59.124Z,98678.93
2019-03-15T18:36:31.019Z,98676.34
2019-03-15T18:39:02.186Z,98682.61
2019-03-15T18:41:32.171Z,98681.58
2019-03-15T18:44:01.466Z,98674.19
2019-03-15T18:46:33.114Z,98684.45
2019-03-15T18:49:02.409Z,98687.78
2019-03-15T18:51:33.351Z,98704.66
2019-03-15T18:54:03.067Z,98702.38
2019-03-15T18:56:32.404Z,98707.22
2019-03-15T18:59:01.797Z,98719.42
2019-03-15T19:01:31.788Z,98716.83
2019-03-15T19:04:01.096Z,98714.06
2019-03-15T19:06:33.240Z,98708.34
2019-03-15T19:09:02.500Z,98726.30
2019-03-15T19:11:31.873Z,98725.42
2019-03-15T19:14:01.191Z,98739.93
2019-03-15T19:16:30.866Z,98744.70
2019-03-15T19:19:00.495Z,98743.37
2019-03-15T19:24:58.904Z,98752.73
2019-03-15T19:27:31.457Z,98747.59
2019-03-15T19:30:00.742Z,98764.91
2019-03-15T19:32:33.474Z,98762.02
2019-03-15T19:35:02.188Z,98770.34
2019-03-15T19:37:31.509Z,98780.44
2019-03-15T19:40:00.853Z,98772.51
2019-03-15T19:42:30.121Z,98766.95
2019-03-15T19:44:59.558Z,98772.19
2019-03-15T19:47:28.969Z,98767.59
2019-03-15T19:49:58.550Z,98783.44
2019-03-15T19:52:27.977Z,98788.30
2019-03-15T19:55:00.649Z,98800.43
2019-03-15T19:57:28.643Z,98803.70
2019-03-15T20:00:07.462Z,98790.77
2019-03-15T20:02:31.347Z,98799.35
2019-03-15T20:05:01.398Z,98804.20
2019-03-15T20:07:31.231Z,98803.84
2019-03-15T20:10:01.504Z,98811.58
2019-03-15T20:12:32.745Z,98818.59
2019-03-15T20:15:02.192Z,98818.14
2019-03-15T20:17:31.583Z,98834.53
2019-03-15T20:20:01.825Z,98849.94
2019-03-15T20:22:31.258Z,98843.59
2019-03-15T20:25:02.498Z,98849.78
2019-03-15T20:27:32.281Z,98853.73
2019-03-15T20:30:01.668Z,98847.16
2019-03-15T20:32:31.057Z,98854.84
2019-03-15T20:35:00.452Z,98866.86
2019-03-15T20:37:29.815Z,98852.66
2019-03-15T20:39:59.176Z,98871.73
2019-03-15T20:42:28.438Z,98874.98
2019-03-15T20:44:57.707Z,98877.94
2019-03-15T20:47:28.066Z,98891.72
2019-03-15T20:49:58.335Z,98868.53
2019-03-15T20:52:27.981Z,98909.79
2019-03-15T20:54:59.799Z,98912.58
2019-03-15T20:57:29.083Z,98915.30
2019-03-15T20:59:58.414Z,98921.14
2019-03-15T21:02:36.334Z,98924.76
2019-03-15T21:05:08.191Z,98915.05
2019-03-15T21:07:38.827Z,98919.81
2019-03-15T21:10:10.918Z,98920.80
2019-03-15T21:12:41.645Z,98890.28
2019-03-15T21:15:11.715Z,98914.94
2019-03-15T21:17:42.198Z,98929.64
2019-03-15T21:20:12.371Z,98928.56
2019-03-15T21:22:41.904Z,98940.67
2019-03-15T21:25:11.972Z,98948.98
2019-03-15T21:27:53.025Z,98948.98
2019-03-15T21:30:14.925Z,98932.77
2019-03-15T21:32:44.328Z,98958.13
2019-03-15T21:35:14.121Z,98910.48
2019-03-15T21:37:43.879Z,98946.86
2019-03-15T21:40:14.364Z,98959.52
2019-03-15T21:42:44.519Z,98949.87
2019-03-15T21:45:19.302Z,98914.52
2019-03-15T21:47:49.132Z,98973.63
2019-03-15T21:50:18.671Z,98946.39
2019-03-15T21:52:49.279Z,98968.16
2019-03-15T21:55:18.865Z,98985.61
2019-03-15T21:57:50.481Z,98977.38
2019-03-15T22:00:20.010Z,98972.22
2019-03-15T22:02:50.528Z,98972.52
2019-03-15T22:05:20.032Z,99002.97
2019-03-15T22:07:51.067Z,99001.94
2019-03-15T22:10:20.821Z,99028.84
2019-03-15T22:12:51.509Z,99013.17
2019-03-15T22:15:21.739Z,99025.03
2019-03-15T22:17:51.284Z,99040.21
2019-03-15T22:20:22.179Z,99034.94
2019-03-15T22:22:51.911Z,99048.67
2019-03-15T22:25:22.066Z,99057.34
2019-03-15T22:27:53.258Z,99071.00
2019-03-15T22:30:22.733Z,99062.55
2019-03-15T22:32:52.301Z,99079.95
2019-03-15T22:35:21.747Z,99090.55
2019-03-15T22:37:52.758Z,99080.41
2019-03-15T22:40:23.890Z,99103.84
2019-03-15T22:42:54.184Z,99093.92
2019-03-15T22:45:23.668Z,99099.13
2019-03-15T22:47:53.578Z,99094.19
2019-03-15T22:50:23.959Z,99114.27
2019-03-15T22:52:53.500Z,99119.81
2019-03-15T22:55:22.939Z,99125.08
2019-03-15T22:57:59.841Z,99122.25
2019-03-15T23:00:30.606Z,99124.32
2019-03-15T23:03:00.418Z,99117.03
2019-03-15T23:05:30.868Z,99128.55
2019-03-15T23:08:01.364Z,99131.38
2019-03-15T23:10:31.771Z,99124.56
2019-03-15T23:13:02.245Z,99137.02
2019-03-15T23:15:32.004Z,99134.66
2019-03-15T23:18:04.932Z,99140.36
2019-03-15T23:20:37.606Z,99139.93
2019-03-15T23:23:07.068Z,99145.76
2019-03-15T23:25:40.009Z,99140.13
2019-03-15T23:28:09.620Z,99168.45
2019-03-15T23:30:39.138Z,99162.20
2019-03-15T23:33:08.939Z,99161.34
2019-03-15T23:35:53.050Z,99169.08
2019-03-15T23:38:09.481Z,99165.73
2019-03-15T23:40:44.343Z,99163.11
2019-03-15T23:43:15.053Z,99173.20
2019-03-15T23:45:45.140Z,99165.91
2019-03-15T23:48:14.731Z,99173.53
2019-03-15T23:50:44.327Z,99181.97
2019-03-15T23:53:18.059Z,99188.14
2019-03-15T23:55:50.413Z,99197.95
2019-03-15T23:58:24.696Z,99206.13
